createdAt,value
2022-08-10T00:02:13.013Z,22.90
2022-08-10T00:04:39.995Z,22.90
2022-08-10T00:07:06.917Z,22.80
2022-08-10T00:09:33.830Z,22.80
2022-08-10T00:12:19.679Z,22.80
2022-08-10T00:14:47.043Z,22.70
2022-08-10T00:17:13.823Z,22.70
2022-08-10T00:20:03.212Z,22.70
2022-08-10T00:22:27.643Z,22.70
2022-08-10T00:24:57.455Z,22.60
2022-08-10T00:28:01.472Z,22.60
2022-08-10T00:30:13.120Z,22.60
2022-08-10T00:32:39.963Z,22.50
2022-08-10T00:35:07.095Z,22.40
2022-08-10T00:37:33.952Z,22.40
2022-08-10T00:40:00.934Z,22.30
2022-08-10T00:42:27.829Z,22.30
2022-08-10T00:44:54.586Z,22.30
2022-08-10T00:47:36.070Z,22.30
2022-08-10T00:50:06.919Z,22.20
2022-08-10T00:52:36.245Z,22.20
2022-08-10T00:55:05.240Z,22.20
2022-08-10T00:57:32.768Z,22.10
2022-08-10T01:00:00.465Z,22.10
2022-08-10T01:02:29.515Z,22.10
2022-08-10T01:04:59.719Z,22.00
2022-08-10T01:07:58.874Z,22.00
2022-08-10T01:10:37.878Z,21.90
2022-08-10T01:13:18.992Z,21.90
2022-08-10T01:15:54.537Z,21.80
2022-08-10T01:18:38.132Z,21.80
2022-08-10T01:21:08.005Z,21.80
2022-08-10T01:24:09.250Z,21.80
2022-08-10T01:26:56.725Z,21.70
2022-08-10T01:29:47.608Z,21.70
2022-08-10T01:32:17.601Z,21.70
2022-08-10T01:34:59.739Z,21.60
2022-08-10T01:37:32.153Z,21.60
2022-08-10T01:40:02.377Z,21.50
2022-08-10T01:42:32.750Z,21.50
2022-08-10T01:45:05.358Z,21.50
2022-08-10T01:47:59.790Z,21.50
2022-08-10T01:50:59.090Z,21.50
2022-08-10T01:53:41.051Z,21.40
2022-08-10T01:56:12.302Z,21.40
2022-08-10T01:58:41.015Z,21.40
2022-08-10T02:01:10.936Z,21.40
2022-08-10T02:04:04.523Z,21.30
2022-08-10T02:06:37.120Z,21.30
2022-08-10T02:09:07.260Z,21.20
2022-08-10T02:12:05.371Z,21.20
2022-08-10T02:14:33.322Z,21.20
2022-08-10T02:17:06.311Z,21.10
2022-08-10T02:19:36.396Z,21.10
2022-08-10T02:22:34.893Z,21.10
2022-08-10T02:24:52.608Z,21.10
2022-08-10T02:27:23.381Z,21.10
2022-08-10T02:29:52.649Z,21.00
2022-08-10T02:32:32.964Z,21.00
2022-08-10T02:35:06.447Z,21.00
2022-08-10T02:37:36.308Z,20.90
2022-08-10T02:40:03.446Z,20.90
2022-08-10T02:45:16.002Z,20.90
2022-08-10T02:45:36.558Z,20.90
2022-08-10T02:48:13.401Z,20.90
2022-08-10T02:50:43.131Z,20.80
2022-08-10T02:53:55.926Z,20.80
2022-08-10T02:56:08.273Z,20.70
2022-08-10T02:58:45.360Z,20.70
2022-08-10T03:01:15.684Z,20.60
2022-08-10T03:03:49.730Z,20.60
2022-08-10T03:06:22.218Z,20.60
2022-08-10T03:08:51.964Z,20.50
2022-08-10T03:12:37.602Z,20.50
2022-08-10T03:14:13.303Z,20.50
2022-08-10T03:16:41.537Z,20.50
2022-08-10T03:20:33.864Z,20.40
2022-08-10T03:21:59.079Z,20.40
2022-08-10T03:24:33.166Z,20.40
2022-08-10T03:27:01.645Z,20.40
2022-08-10T03:29:30.836Z,20.40
2022-08-10T03:32:19.053Z,20.30
2022-08-10T03:34:46.620Z,20.30
2022-08-10T03:37:13.399Z,20.30
2022-08-10T03:39:40.335Z,20.30
2022-08-10T03:42:12.900Z,20.20
2022-08-10T03:44:43.050Z,20.20
2022-08-10T03:47:16.194Z,20.20
2022-08-10T03:49:46.755Z,20.10
2022-08-10T03:52:14.822Z,20.20
2022-08-10T03:54:42.785Z,20.20
2022-08-10T03:57:10.145Z,20.20
2022-08-10T03:59:37.768Z,20.20
2022-08-10T04:02:52.198Z,20.10
2022-08-10T04:04:55.088Z,20.20
2022-08-10T04:07:21.987Z,20.20
2022-08-10T04:09:56.159Z,20.20
2022-08-10T04:12:24.340Z,20.10
2022-08-10T04:14:53.130Z,20.10
2022-08-10T04:17:59.475Z,20.10
2022-08-10T04:20:34.424Z,20.10
2022-08-10T04:23:06.570Z,20.10
2022-08-10T04:25:34.440Z,20.00
2022-08-10T04:28:03.195Z,20.00
2022-08-10T04:30:31.857Z,20.00
2022-08-10T04:32:59.781Z,20.00
2022-08-10T04:35:29.020Z,20.00
2022-08-10T04:37:57.137Z,20.00
2022-08-10T04:40:25.119Z,19.90
2022-08-10T04:43:10.514Z,19.90
2022-08-10T04:45:49.613Z,19.90
2022-08-10T04:48:42.944Z,19.80
2022-08-10T04:51:07.844Z,19.80
2022-08-10T04:54:04.135Z,19.80
2022-08-10T04:56:31.381Z,19.80
2022-08-10T04:58:59.708Z,19.80
2022-08-10T05:01:26.574Z,19.80
2022-08-10T05:04:37.405Z,19.80
2022-08-10T05:06:40.292Z,19.80
2022-08-10T05:09:07.055Z,19.90
2022-08-10T05:11:34.086Z,19.80
2022-08-10T05:14:01.144Z,19.80
2022-08-10T05:16:31.595Z,19.80
2022-08-10T05:18:59.198Z,19.80
2022-08-10T05:21:57.017Z,19.80
2022-08-10T05:24:12.900Z,19.80
2022-08-10T05:26:55.340Z,19.80
2022-08-10T05:29:26.714Z,19.80
2022-08-10T05:31:54.099Z,19.80
2022-08-10T05:34:26.504Z,19.80
2022-08-10T05:36:55.417Z,19.80
2022-08-10T05:39:31.898Z,19.70
2022-08-10T05:42:01.798Z,19.80
2022-08-10T05:44:30.044Z,19.80
2022-08-10T05:46:56.977Z,19.80
2022-08-10T05:49:24.280Z,19.80
2022-08-10T05:51:51.815Z,19.80
2022-08-10T05:54:19.193Z,19.80
2022-08-10T05:56:54.061Z,19.80
2022-08-10T06:00:35.180Z,19.80
2022-08-10T06:02:31.057Z,19.90
2022-08-10T06:05:23.424Z,19.90
2022-08-10T06:08:04.642Z,20.00
2022-08-10T06:10:35.514Z,20.00
2022-08-10T06:13:30.718Z,20.00
2022-08-10T06:16:05.890Z,20.00
2022-08-10T06:18:33.290Z,20.00
2022-08-10T06:21:03.314Z,20.10
2022-08-10T06:23:31.612Z,20.10
2022-08-10T06:26:09.016Z,20.10
2022-08-10T06:29:01.963Z,20.20
2022-08-10T06:31:35.936Z,20.30
2022-08-10T06:34:25.191Z,20.30
2022-08-10T06:36:54.129Z,20.30
2022-08-10T06:39:33.443Z,20.40
2022-08-10T06:42:24.896Z,20.40
2022-08-10T06:44:58.424Z,20.50
2022-08-10T06:47:43.523Z,20.50
2022-08-10T06:50:44.835Z,20.60
2022-08-10T06:53:17.846Z,20.60
2022-08-10T06:55:57.490Z,20.70
2022-08-10T06:58:34.111Z,20.70
2022-08-10T07:01:04.788Z,20.80
2022-08-10T07:03:36.509Z,20.80
2022-08-10T07:06:05.123Z,20.90
2022-08-10T07:08:33.746Z,21.00
2022-08-10T07:11:02.496Z,21.10
2022-08-10T07:14:15.427Z,21.20
2022-08-10T07:16:19.821Z,21.30
2022-08-10T07:18:48.736Z,21.40
2022-08-10T07:21:17.986Z,21.50
2022-08-10T07:23:58.508Z,21.60
2022-08-10T07:26:28.922Z,21.70
2022-08-10T07:28:56.930Z,21.80
2022-08-10T07:31:34.006Z,22.00
2022-08-10T07:34:28.871Z,22.10
2022-08-10T07:37:00.423Z,22.20
2022-08-10T07:40:03.516Z,22.40
2022-08-10T07:42:26.998Z,22.50
2022-08-10T07:44:53.890Z,22.70
2022-08-10T07:47:53.558Z,22.80
2022-08-10T07:50:20.086Z,22.90
2022-08-10T07:52:48.813Z,23.10
2022-08-10T07:55:18.354Z,23.20
2022-08-10T07:57:49.410Z,23.40
2022-08-10T08:00:17.250Z,23.50
2022-08-10T08:02:53.874Z,23.60
2022-08-10T08:05:55.148Z,23.80
2022-08-10T08:08:14.903Z,23.90
2022-08-10T08:10:42.860Z,24.10
2022-08-10T08:13:10.457Z,24.30
2022-08-10T08:16:15.637Z,24.40
2022-08-10T08:18:28.941Z,24.60
2022-08-10T08:20:56.132Z,24.70
2022-08-10T08:24:09.204Z,24.80
2022-08-10T08:26:15.593Z,24.90
2022-08-10T08:28:45.679Z,25.10
2022-08-10T08:31:18.015Z,25.30
2022-08-10T08:33:47.000Z,25.50
2022-08-10T08:36:18.527Z,25.60
2022-08-10T08:38:47.518Z,25.80
2022-08-10T08:41:36.303Z,25.90
2022-08-10T08:44:34.707Z,26.10
2022-08-10T08:48:03.399Z,26.20
2022-08-10T08:50:39.922Z,26.40
2022-08-10T08:54:01.039Z,26.60
2022-08-10T08:57:07.861Z,26.80
2022-08-10T09:00:05.955Z,27.10
2022-08-10T09:03:13.847Z,27.30
2022-08-10T09:06:13.391Z,27.50
2022-08-10T09:08:58.888Z,27.60
2022-08-10T09:11:50.234Z,27.80
2022-08-10T09:14:30.021Z,27.90
2022-08-10T09:17:12.095Z,28.10
2022-08-10T09:19:49.547Z,28.20
2022-08-10T09:22:40.651Z,28.30
2022-08-10T09:25:28.286Z,28.50
2022-08-10T09:28:07.791Z,28.60
2022-08-10T09:31:11.053Z,28.80
2022-08-10T09:36:19.798Z,28.90
2022-08-10T09:36:48.366Z,29.00
2022-08-10T09:40:50.060Z,29.20
2022-08-10T09:43:21.593Z,29.30
2022-08-10T09:45:58.944Z,29.50
2022-08-10T09:48:51.296Z,29.70
2022-08-10T09:51:45.887Z,29.90
2022-08-10T09:54:27.366Z,30.10
2022-08-10T09:57:12.283Z,30.10
2022-08-10T10:00:01.509Z,30.30
2022-08-10T10:03:14.911Z,30.40
2022-08-10T10:05:57.181Z,30.60
2022-08-10T10:08:26.850Z,30.70
2022-08-10T10:11:04.168Z,30.80
2022-08-10T10:14:12.625Z,31.00
2022-08-10T10:17:20.918Z,31.20
2022-08-10T10:20:05.487Z,31.40
2022-08-10T10:22:50.911Z,31.50
2022-08-10T10:25:51.798Z,31.60
2022-08-10T10:28:57.532Z,31.70
2022-08-10T10:31:38.398Z,31.90
2022-08-10T10:34:25.169Z,32.00
2022-08-10T10:36:53.824Z,32.10
2022-08-10T10:39:26.166Z,32.10
2022-08-10T10:42:14.620Z,32.30
2022-08-10T10:45:16.177Z,32.40
2022-08-10T10:48:10.435Z,32.50
2022-08-10T10:50:54.320Z,32.70
2022-08-10T10:53:39.741Z,32.70
2022-08-10T10:56:35.444Z,32.80
2022-08-10T10:59:02.529Z,32.90
2022-08-10T11:02:26.703Z,33.10
2022-08-10T11:05:14.738Z,33.20
2022-08-10T11:07:53.503Z,33.20
2022-08-10T11:10:46.934Z,33.20
2022-08-10T11:14:27.100Z,33.30
2022-08-10T11:16:57.182Z,33.40
2022-08-10T11:20:03.003Z,33.50
2022-08-10T11:22:30.346Z,33.50
2022-08-10T11:25:22.256Z,33.60
2022-08-10T11:28:07.583Z,33.70
2022-08-10T11:30:34.737Z,34.00
2022-08-10T11:33:07.875Z,34.20
2022-08-10T11:35:49.610Z,34.30
2022-08-10T11:39:04.076Z,34.50
2022-08-10T11:42:07.908Z,34.70
2022-08-10T11:45:03.898Z,34.70
2022-08-10T11:47:58.333Z,34.80
2022-08-10T11:50:46.771Z,35.00
2022-08-10T11:53:53.685Z,35.20
2022-08-10T11:56:31.718Z,35.40
2022-08-10T11:59:17.802Z,35.50
2022-08-10T12:01:47.140Z,35.60
2022-08-10T12:04:16.129Z,35.70
2022-08-10T12:07:00.057Z,35.70
2022-08-10T12:10:09.588Z,35.90
2022-08-10T12:12:16.692Z,36.00
2022-08-10T12:15:08.794Z,36.10
2022-08-10T12:17:52.610Z,36.10
2022-08-10T12:20:26.634Z,36.10
2022-08-10T12:22:59.375Z,36.10
2022-08-10T12:25:57.583Z,36.20
2022-08-10T12:28:50.808Z,36.40
2022-08-10T12:31:42.792Z,36.40
2022-08-10T12:34:37.329Z,36.60
2022-08-10T12:37:12.877Z,36.60
2022-08-10T12:44:05.265Z,36.70
2022-08-10T12:46:06.318Z,36.80
2022-08-10T12:48:55.562Z,36.80
2022-08-10T12:51:28.913Z,36.90
2022-08-10T12:54:12.363Z,37.00
2022-08-10T12:56:48.458Z,37.10
2022-08-10T12:59:16.719Z,37.20
2022-08-10T13:02:06.514Z,37.20
2022-08-10T13:04:36.043Z,37.10
2022-08-10T13:07:05.305Z,37.20
2022-08-10T13:09:33.157Z,37.30
2022-08-10T13:12:44.944Z,37.30
2022-08-10T13:15:28.180Z,37.40
2022-08-10T13:17:55.705Z,37.50
2022-08-10T13:20:29.067Z,37.50
2022-08-10T13:22:59.821Z,37.50
2022-08-10T13:25:31.867Z,37.60
2022-08-10T13:28:36.180Z,37.70
2022-08-10T13:30:55.472Z,37.80
2022-08-10T13:34:41.575Z,37.80
2022-08-10T13:36:20.628Z,37.70
2022-08-10T13:38:48.825Z,37.60
2022-08-10T13:41:18.816Z,37.70
2022-08-10T13:43:52.432Z,37.70
2022-08-10T13:46:22.813Z,37.70
2022-08-10T13:48:54.885Z,37.80
2022-08-10T13:51:56.705Z,37.80
2022-08-10T13:54:19.253Z,37.90
2022-08-10T13:56:48.898Z,38.00
2022-08-10T13:59:17.726Z,38.00
2022-08-10T14:01:52.540Z,38.00
2022-08-10T14:04:20.172Z,38.00
2022-08-10T14:06:57.077Z,38.10
2022-08-10T14:09:28.646Z,38.20
2022-08-10T14:11:56.475Z,38.10
2022-08-10T14:14:25.649Z,38.10
2022-08-10T14:16:54.008Z,38.10
2022-08-10T14:19:29.867Z,38.20
2022-08-10T14:21:57.457Z,38.20
2022-08-10T14:24:29.340Z,38.20
2022-08-10T14:27:07.014Z,38.30
2022-08-10T14:29:42.785Z,38.40
2022-08-10T14:32:11.192Z,38.40
2022-08-10T14:36:15.553Z,38.40
2022-08-10T14:37:37.988Z,38.40
2022-08-10T14:40:17.567Z,38.50
2022-08-10T14:43:06.767Z,38.50
2022-08-10T14:45:37.000Z,38.40
2022-08-10T14:48:29.890Z,38.40
2022-08-10T14:50:59.621Z,38.30
2022-08-10T14:53:34.680Z,38.30
2022-08-10T14:56:07.231Z,38.30
2022-08-10T14:59:05.666Z,38.30
2022-08-10T15:02:37.536Z,38.40
2022-08-10T15:04:23.167Z,38.50
2022-08-10T15:06:56.828Z,38.50
2022-08-10T15:09:28.299Z,38.50
2022-08-10T15:12:13.444Z,38.50
2022-08-10T15:14:46.667Z,38.40
2022-08-10T15:17:37.148Z,38.30
2022-08-10T15:20:14.938Z,38.20
2022-08-10T15:22:55.994Z,38.10
2022-08-10T15:25:26.017Z,37.90
2022-08-10T15:28:04.875Z,37.90
2022-08-10T15:30:39.725Z,37.90
2022-08-10T15:34:03.328Z,38.00
2022-08-10T15:36:36.064Z,38.00
2022-08-10T15:39:37.901Z,38.20
2022-08-10T15:42:08.575Z,38.10
2022-08-10T15:44:45.287Z,38.10
2022-08-10T15:47:24.489Z,38.20
2022-08-10T15:50:19.705Z,38.20
2022-08-10T15:53:03.130Z,38.10
2022-08-10T15:55:44.070Z,38.10
2022-08-10T15:58:30.121Z,38.00
2022-08-10T16:02:12.813Z,38.00
2022-08-10T16:04:31.744Z,38.00
2022-08-10T16:07:03.265Z,38.10
2022-08-10T16:10:23.196Z,38.10
2022-08-10T16:12:34.326Z,38.00
2022-08-10T16:15:10.983Z,38.00
2022-08-10T16:17:54.293Z,38.00
2022-08-10T16:20:53.457Z,37.90
2022-08-10T16:23:34.975Z,37.90
2022-08-10T16:26:14.488Z,37.80
2022-08-10T16:28:54.769Z,37.70
2022-08-10T16:31:24.917Z,37.60
2022-08-10T16:33:55.243Z,37.50
2022-08-10T16:36:29.110Z,37.40
2022-08-10T16:38:57.518Z,37.40
2022-08-10T16:42:03.764Z,37.30
2022-08-10T16:44:18.579Z,37.10
2022-08-10T16:46:46.633Z,37.00
2022-08-10T16:49:15.787Z,36.80
2022-08-10T16:51:47.681Z,36.70
2022-08-10T16:54:22.378Z,36.60
2022-08-10T16:56:52.844Z,36.50
2022-08-10T16:59:24.812Z,36.40
2022-08-10T17:01:54.061Z,36.40
2022-08-10T17:04:23.680Z,36.30
2022-08-10T17:06:57.619Z,36.20
2022-08-10T17:09:30.492Z,36.10
2022-08-10T17:11:59.394Z,36.00
2022-08-10T17:14:28.805Z,35.90
2022-08-10T17:17:02.819Z,35.90
2022-08-10T17:19:36.993Z,35.80
2022-08-10T17:22:11.157Z,35.70
2022-08-10T17:24:47.860Z,35.50
2022-08-10T17:28:13.906Z,35.40
2022-08-10T17:30:11.043Z,35.30
2022-08-10T17:33:10.864Z,35.20
2022-08-10T17:35:41.167Z,35.10
2022-08-10T17:38:24.222Z,35.00
2022-08-10T17:41:12.790Z,34.90
2022-08-10T17:43:57.780Z,34.70
2022-08-10T17:46:34.392Z,34.70
2022-08-10T17:49:06.859Z,34.50
2022-08-10T17:51:35.670Z,34.50
2022-08-10T17:54:08.895Z,34.30
2022-08-10T17:56:37.745Z,34.20
2022-08-10T17:59:17.371Z,34.10
2022-08-10T18:02:01.259Z,34.10
2022-08-10T18:04:35.534Z,34.00
2022-08-10T18:07:10.539Z,33.80
2022-08-10T18:09:42.286Z,33.70
2022-08-10T18:12:17.929Z,33.70
2022-08-10T18:14:49.731Z,33.60
2022-08-10T18:17:23.549Z,33.60
2022-08-10T18:20:01.875Z,33.50
2022-08-10T18:22:30.240Z,33.40
2022-08-10T18:25:00.070Z,33.30
2022-08-10T18:27:46.570Z,33.20
2022-08-10T18:30:19.021Z,33.10
2022-08-10T18:32:50.157Z,33.10
2022-08-10T18:35:18.819Z,33.00
2022-08-10T18:37:51.918Z,33.00
2022-08-10T18:40:19.281Z,32.90
2022-08-10T18:42:50.283Z,32.80
2022-08-10T18:45:21.371Z,32.70
2022-08-10T18:48:13.676Z,32.70
2022-08-10T18:50:51.032Z,32.50
2022-08-10T18:53:50.548Z,32.50
2022-08-10T18:56:44.733Z,32.40
2022-08-10T18:59:39.424Z,32.40
2022-08-10T19:02:32.441Z,32.30
2022-08-10T19:05:32.492Z,32.20
2022-08-10T19:08:30.508Z,32.20
2022-08-10T19:11:11.386Z,32.10
2022-08-10T19:13:50.817Z,32.00
2022-08-10T19:16:40.891Z,31.80
2022-08-10T19:19:45.245Z,31.70
2022-08-10T19:22:22.796Z,31.60
2022-08-10T19:26:43.042Z,31.50
2022-08-10T19:28:35.761Z,31.50
2022-08-10T19:31:21.279Z,31.40
2022-08-10T19:33:49.403Z,31.30
2022-08-10T19:36:44.703Z,31.20
2022-08-10T19:39:26.951Z,31.20
2022-08-10T19:42:11.211Z,31.10
2022-08-10T19:44:53.877Z,31.10
2022-08-10T19:47:40.796Z,31.00
2022-08-10T19:50:19.556Z,30.90
2022-08-10T19:53:04.238Z,30.90
2022-08-10T19:56:04.950Z,30.80
2022-08-10T19:58:56.365Z,30.80
2022-08-10T20:01:25.681Z,30.70
2022-08-10T20:04:19.980Z,30.60
2022-08-10T20:06:57.264Z,30.50
2022-08-10T20:09:38.324Z,30.50
2022-08-10T20:12:08.478Z,30.40
2022-08-10T20:15:11.590Z,30.30
2022-08-10T20:17:55.226Z,30.30
2022-08-10T20:21:03.407Z,30.20
2022-08-10T20:23:36.610Z,30.20
2022-08-10T20:26:21.294Z,30.10
2022-08-10T20:29:16.322Z,30.10
2022-08-10T20:32:15.295Z,30.10
2022-08-10T20:34:48.934Z,30.00
2022-08-10T20:37:41.215Z,29.90
2022-08-10T20:40:32.491Z,29.90
2022-08-10T20:43:21.139Z,29.80
2022-08-10T20:46:19.801Z,29.70
2022-08-10T20:48:55.136Z,29.60
2022-08-10T20:51:59.225Z,29.60
2022-08-10T20:54:17.205Z,29.60
2022-08-10T20:56:53.116Z,29.60
2022-08-10T20:59:33.282Z,29.50
2022-08-10T21:02:13.541Z,29.50
2022-08-10T21:04:56.929Z,29.40
2022-08-10T21:08:00.393Z,29.40
2022-08-10T21:10:59.869Z,29.30
2022-08-10T21:13:51.572Z,29.20
2022-08-10T21:16:39.503Z,29.20
2022-08-10T21:19:39.986Z,29.10
2022-08-10T21:22:21.233Z,29.10
2022-08-10T21:25:04.098Z,29.00
2022-08-10T21:27:55.415Z,29.00
2022-08-10T21:30:34.790Z,28.90
2022-08-10T21:33:14.943Z,28.90
2022-08-10T21:35:52.646Z,28.90
2022-08-10T21:38:54.893Z,28.80
2022-08-10T21:42:04.263Z,28.80
2022-08-10T21:45:04.251Z,28.70
2022-08-10T21:48:30.102Z,28.70
2022-08-10T21:51:27.129Z,28.60
2022-08-10T21:54:42.974Z,28.60
2022-08-10T21:57:43.551Z,28.50
2022-08-10T22:00:49.445Z,28.40
2022-08-10T22:03:40.028Z,28.40
2022-08-10T22:06:28.130Z,28.30
2022-08-10T22:09:27.291Z,28.30
2022-08-10T22:12:31.186Z,28.20
2022-08-10T22:16:03.917Z,28.10
2022-08-10T22:18:58.776Z,28.10
2022-08-10T22:22:02.985Z,28.00
2022-08-10T22:25:18.049Z,27.90
2022-08-10T22:28:12.372Z,27.80
2022-08-10T22:31:30.125Z,27.70
2022-08-10T22:34:33.115Z,27.70
2022-08-10T22:38:09.380Z,27.60
2022-08-10T22:40:55.301Z,27.50
2022-08-10T22:43:48.472Z,27.50
2022-08-10T22:46:46.904Z,27.40
2022-08-10T22:49:21.088Z,27.40
2022-08-10T22:52:11.018Z,27.40
2022-08-10T22:55:12.285Z,27.30
2022-08-10T22:58:08.460Z,27.30
2022-08-10T23:00:37.062Z,27.20
2022-08-10T23:03:21.746Z,27.20
2022-08-10T23:06:06.152Z,27.10
2022-08-10T23:08:41.748Z,27.00
2022-08-10T23:11:22.970Z,27.00
2022-08-10T23:13:57.378Z,27.00
2022-08-10T23:16:47.516Z,26.90
2022-08-10T23:19:25.930Z,26.80
2022-08-10T23:22:02.954Z,26.80
2022-08-10T23:25:03.362Z,26.70
2022-08-10T23:27:38.326Z,26.70
2022-08-10T23:30:17.894Z,26.60
2022-08-10T23:32:50.955Z,26.60
2022-08-10T23:36:27.175Z,26.60
2022-08-10T23:38:10.652Z,26.50
2022-08-10T23:40:38.207Z,26.40
2022-08-10T23:43:06.794Z,26.40
2022-08-10T23:45:52.749Z,26.30
2022-08-10T23:48:29.613Z,26.30
2022-08-10T23:51:00.187Z,26.20
2022-08-10T23:53:38.509Z,26.20
2022-08-10T23:56:12.423Z,26.10
2022-08-10T23:58:45.919Z,26.00
